createdAt,value
2022-12-14T00:01:49.168Z,6.60
2022-12-14T00:04:17.419Z,6.83
2022-12-14T00:06:44.922Z,6.30
2022-12-14T00:09:12.641Z,6.17
2022-12-14T00:11:40.256Z,6.30
2022-12-14T00:14:07.778Z,6.40
2022-12-14T00:16:35.766Z,7.30
2022-12-14T00:19:05.464Z,6.17
2022-12-14T00:21:33.814Z,6.33
2022-12-14T00:24:01.294Z,6.03
2022-12-14T00:26:31.375Z,6.40
2022-12-14T00:28:59.720Z,6.20
2022-12-14T00:31:27.320Z,6.47
2022-12-14T00:33:55.630Z,6.37
2022-12-14T00:36:23.157Z,5.87
2022-12-14T00:38:50.713Z,5.90
2022-12-14T00:41:18.158Z,6.00
2022-12-14T00:43:45.654Z,6.07
2022-12-14T00:46:17.390Z,6.23
2022-12-14T00:48:45.087Z,6.30
2022-12-14T00:51:14.986Z,6.00
2022-12-14T00:53:42.879Z,6.17
2022-12-14T00:56:10.411Z,6.30
2022-12-14T00:58:37.874Z,6.37
2022-12-14T01:01:07.032Z,5.93
2022-12-14T01:03:35.047Z,5.87
2022-12-14T01:06:02.954Z,5.97
2022-12-14T01:08:35.990Z,6.07
2022-12-14T01:11:05.453Z,6.20
2022-12-14T01:13:33.188Z,5.93
2022-12-14T01:16:09.640Z,6.10
2022-12-14T01:18:37.799Z,5.97
2022-12-14T01:21:24.252Z,6.20
2022-12-14T01:23:58.595Z,5.30
2022-12-14T01:26:27.226Z,6.30
2022-12-14T01:28:58.715Z,6.00
2022-12-14T01:31:28.013Z,5.67
2022-12-14T01:33:55.642Z,5.83
2022-12-14T01:36:24.793Z,6.30
2022-12-14T01:38:56.737Z,6.07
2022-12-14T01:41:31.525Z,6.07
2022-12-14T01:44:03.061Z,6.03
2022-12-14T01:46:30.610Z,6.03
2022-12-14T01:49:03.888Z,5.90
2022-12-14T01:51:32.860Z,6.13
2022-12-14T01:54:01.175Z,6.20
2022-12-14T01:56:29.909Z,6.77
2022-12-14T01:58:59.527Z,6.10
2022-12-14T02:01:27.063Z,6.13
2022-12-14T02:03:55.141Z,6.63
2022-12-14T02:06:25.315Z,6.10
2022-12-14T02:08:54.425Z,5.97
2022-12-14T02:11:27.404Z,6.03
2022-12-14T02:13:54.895Z,5.87
2022-12-14T02:16:22.405Z,5.83
2022-12-14T02:18:49.928Z,5.73
2022-12-14T02:21:17.590Z,6.20
2022-12-14T02:24:06.817Z,5.80
2022-12-14T02:26:52.760Z,6.20
2022-12-14T02:29:38.769Z,6.63
2022-12-14T02:32:21.141Z,6.53
2022-12-14T02:34:54.702Z,5.70
2022-12-14T02:37:26.186Z,6.10
2022-12-14T02:39:53.633Z,5.77
2022-12-14T02:42:25.063Z,6.53
2022-12-14T02:45:04.432Z,6.43
2022-12-14T02:47:39.239Z,6.97
2022-12-14T02:50:12.945Z,6.20
2022-12-14T02:52:43.421Z,6.00
2022-12-14T02:55:19.803Z,6.47
2022-12-14T02:57:57.743Z,6.53
2022-12-14T03:00:25.521Z,7.10
2022-12-14T03:02:53.838Z,7.13
2022-12-14T03:05:21.558Z,6.13
2022-12-14T03:07:52.025Z,6.40
2022-12-14T03:10:22.613Z,6.93
2022-12-14T03:12:55.222Z,6.67
2022-12-14T03:15:24.331Z,6.20
2022-12-14T03:17:53.879Z,6.90
2022-12-14T03:20:23.441Z,6.67
2022-12-14T03:23:03.265Z,5.77
2022-12-14T03:25:34.093Z,6.80
2022-12-14T03:28:10.009Z,6.40
2022-12-14T03:30:59.437Z,6.60
2022-12-14T03:33:28.287Z,5.90
2022-12-14T03:36:05.843Z,5.53
2022-12-14T03:38:43.631Z,6.60
2022-12-14T03:41:32.226Z,6.17
2022-12-14T03:44:05.935Z,6.13
2022-12-14T03:46:45.777Z,5.87
2022-12-14T03:49:19.456Z,6.20
2022-12-14T03:51:46.918Z,6.30
2022-12-14T03:54:21.284Z,7.93
2022-12-14T03:56:53.507Z,6.50
2022-12-14T03:59:27.653Z,6.70
2022-12-14T04:02:04.311Z,7.03
2022-12-14T04:04:35.536Z,5.77
2022-12-14T04:07:05.762Z,6.50
2022-12-14T04:09:36.614Z,6.70
2022-12-14T04:12:42.589Z,6.73
2022-12-14T04:15:33.207Z,5.93
2022-12-14T04:29:13.004Z,6.10
2022-12-14T04:31:43.125Z,6.83
2022-12-14T04:34:12.619Z,7.10
2022-12-14T04:36:43.104Z,6.67
2022-12-14T04:39:14.349Z,6.43
2022-12-14T04:41:43.275Z,7.70
2022-12-14T04:44:15.244Z,7.00
2022-12-14T04:46:46.657Z,7.07
2022-12-14T04:49:22.737Z,7.20
2022-12-14T04:52:04.800Z,6.70
2022-12-14T04:54:39.176Z,6.93
2022-12-14T04:57:18.831Z,6.93
2022-12-14T04:59:46.865Z,7.47
2022-12-14T05:02:23.543Z,7.17
2022-12-14T05:04:56.798Z,6.87
2022-12-14T05:07:36.253Z,6.97
2022-12-14T05:10:22.371Z,6.47
2022-12-14T05:12:57.553Z,6.67
2022-12-14T05:15:27.796Z,7.23
2022-12-14T05:17:55.417Z,5.97
2022-12-14T05:20:24.683Z,6.97
2022-12-14T05:22:52.086Z,7.07
2022-12-14T05:25:19.456Z,6.57
2022-12-14T05:27:46.868Z,7.17
2022-12-14T05:30:14.353Z,6.57
2022-12-14T05:32:41.814Z,6.43
2022-12-14T05:35:10.676Z,7.00
2022-12-14T05:37:38.289Z,7.73
2022-12-14T05:40:06.277Z,6.93
2022-12-14T05:42:33.660Z,7.30
2022-12-14T05:45:01.083Z,7.17
2022-12-14T05:47:28.826Z,6.90
2022-12-14T05:49:56.163Z,6.80
2022-12-14T05:52:26.076Z,7.53
2022-12-14T05:54:55.544Z,7.17
2022-12-14T05:57:24.654Z,8.30
2022-12-14T05:59:52.067Z,8.13
2022-12-14T06:02:19.577Z,8.40
2022-12-14T06:04:47.151Z,8.53
2022-12-14T06:07:14.535Z,8.13
2022-12-14T06:09:42.195Z,8.73
2022-12-14T06:12:09.605Z,8.10
2022-12-14T06:14:37.045Z,8.17
2022-12-14T06:17:04.513Z,8.00
2022-12-14T06:19:31.958Z,8.07
2022-12-14T06:21:59.409Z,7.97
2022-12-14T06:24:26.780Z,8.67
2022-12-14T06:26:54.210Z,8.23
2022-12-14T06:29:21.659Z,8.70
2022-12-14T06:31:49.789Z,8.17
2022-12-14T06:34:17.816Z,9.37
2022-12-14T06:36:46.867Z,9.17
2022-12-14T06:39:15.129Z,9.43
2022-12-14T06:41:42.700Z,7.90
2022-12-14T06:44:14.756Z,8.10
2022-12-14T06:46:42.592Z,7.80
2022-12-14T06:49:13.510Z,8.50
2022-12-14T06:51:41.022Z,8.67
2022-12-14T06:54:08.704Z,8.87
2022-12-14T06:56:36.075Z,8.17
2022-12-14T06:59:03.467Z,8.40
2022-12-14T07:01:31.003Z,9.17
2022-12-14T07:03:59.674Z,8.77
2022-12-14T07:06:29.008Z,8.73
2022-12-14T07:08:57.582Z,8.87
2022-12-14T07:11:25.831Z,8.20
2022-12-14T07:13:53.764Z,8.07
2022-12-14T07:16:22.149Z,8.83
2022-12-14T07:18:50.137Z,9.43
2022-12-14T07:21:18.489Z,10.07
2022-12-14T07:23:46.496Z,7.93
2022-12-14T07:26:17.754Z,8.90
2022-12-14T07:28:45.625Z,8.50
2022-12-14T07:31:17.214Z,8.60
2022-12-14T07:33:44.619Z,8.77
2022-12-14T07:36:13.655Z,8.40
2022-12-14T07:38:41.641Z,8.50
2022-12-14T07:41:10.739Z,7.73
2022-12-14T07:43:38.548Z,7.90
2022-12-14T07:46:07.831Z,8.27
2022-12-14T07:48:35.529Z,7.40
2022-12-14T07:51:04.041Z,7.97
2022-12-14T07:53:31.869Z,8.27
2022-12-14T07:56:03.615Z,8.77
2022-12-14T07:58:31.359Z,7.80
2022-12-14T08:01:08.320Z,7.30
2022-12-14T08:03:35.795Z,8.03
2022-12-14T08:06:07.205Z,8.50
2022-12-14T08:08:34.990Z,8.23
2022-12-14T08:11:02.713Z,8.83
2022-12-14T08:13:30.680Z,8.40
2022-12-14T08:16:03.068Z,8.10
2022-12-14T08:18:30.523Z,8.47
2022-12-14T08:20:57.932Z,8.80
2022-12-14T08:23:28.565Z,8.13
2022-12-14T08:25:57.038Z,9.13
2022-12-14T08:28:25.082Z,9.10
2022-12-14T08:30:53.036Z,13.10
2022-12-14T08:33:21.233Z,9.33
2022-12-14T08:35:49.024Z,9.97
2022-12-14T08:38:16.632Z,9.27
2022-12-14T08:40:44.080Z,9.27
2022-12-14T08:43:11.562Z,9.87
2022-12-14T08:45:39.170Z,9.80
2022-12-14T08:48:06.727Z,10.23
2022-12-14T08:50:34.222Z,9.47
2022-12-14T08:53:01.636Z,10.00
2022-12-14T08:55:32.544Z,9.47
2022-12-14T08:58:02.728Z,9.77
2022-12-14T09:00:30.237Z,9.60
2022-12-14T09:02:57.732Z,10.47
2022-12-14T09:05:25.383Z,9.47
2022-12-14T09:07:52.684Z,9.80
2022-12-14T09:10:20.166Z,9.20
2022-12-14T09:12:47.573Z,10.97
2022-12-14T09:15:15.053Z,9.17
2022-12-14T09:17:42.487Z,9.73
2022-12-14T09:20:10.669Z,9.93
2022-12-14T09:22:37.992Z,9.60
2022-12-14T09:25:05.450Z,9.90
2022-12-14T09:27:33.647Z,12.60
2022-12-14T09:30:01.042Z,10.13
2022-12-14T09:32:31.722Z,10.00
2022-12-14T09:34:59.637Z,9.77
2022-12-14T09:37:27.060Z,9.93
2022-12-14T09:39:54.466Z,9.33
2022-12-14T09:42:24.987Z,10.03
2022-12-14T09:45:05.216Z,10.63
2022-12-14T09:47:36.378Z,10.53
2022-12-14T09:50:03.733Z,11.00
2022-12-14T09:52:54.513Z,11.20
2022-12-14T09:55:26.310Z,22.13
2022-12-14T09:58:01.282Z,15.87
2022-12-14T10:00:33.205Z,11.90
2022-12-14T10:03:14.616Z,18.10
2022-12-14T10:06:01.635Z,11.80
2022-12-14T10:08:32.816Z,12.00
2022-12-14T10:11:03.429Z,11.27
2022-12-14T10:13:31.407Z,10.63
2022-12-14T10:16:19.495Z,10.20
2022-12-14T10:19:00.885Z,9.87
2022-12-14T10:21:37.836Z,8.80
2022-12-14T10:24:06.753Z,10.10
2022-12-14T10:26:46.457Z,10.33
2022-12-14T10:29:36.024Z,10.20
2022-12-14T10:32:22.413Z,9.50
2022-12-14T10:34:49.930Z,9.63
2022-12-14T10:37:25.742Z,10.10
2022-12-14T10:40:19.688Z,10.23
2022-12-14T10:43:03.288Z,10.97
2022-12-14T10:45:40.232Z,9.93
2022-12-14T10:48:24.801Z,9.87
2022-12-14T10:51:01.424Z,9.90
2022-12-14T10:53:35.824Z,9.53
2022-12-14T10:56:12.134Z,11.23
2022-12-14T10:58:39.527Z,9.60
2022-12-14T11:01:10.525Z,11.00
2022-12-14T11:03:38.341Z,10.13
2022-12-14T11:06:15.211Z,10.53
2022-12-14T11:08:48.311Z,9.97
2022-12-14T11:11:23.827Z,9.33
2022-12-14T11:13:52.789Z,10.63
2022-12-14T11:16:28.958Z,10.20
2022-12-14T11:19:01.754Z,9.63
2022-12-14T11:21:30.717Z,11.50
2022-12-14T11:23:58.208Z,10.90
2022-12-14T11:26:37.404Z,11.77
2022-12-14T11:29:06.896Z,11.27
2022-12-14T11:31:37.412Z,11.37
2022-12-14T11:34:06.205Z,11.67
2022-12-14T11:36:37.439Z,11.30
2022-12-14T11:39:04.868Z,10.13
2022-12-14T11:41:40.073Z,11.23
2022-12-14T11:44:23.263Z,10.00
2022-12-14T11:47:00.301Z,10.03
2022-12-14T11:49:43.729Z,10.73
2022-12-14T11:52:12.880Z,10.57
2022-12-14T11:54:42.060Z,13.63
2022-12-14T11:57:10.267Z,11.87
2022-12-14T11:59:43.164Z,11.13
2022-12-14T12:02:22.986Z,11.93
2022-12-14T12:04:53.398Z,12.60
2022-12-14T12:07:32.263Z,11.00
2022-12-14T12:10:05.934Z,11.43
2022-12-14T12:12:33.671Z,10.77
2022-12-14T12:15:01.358Z,11.47
2022-12-14T12:17:43.635Z,10.90
2022-12-14T12:20:31.687Z,11.57
2022-12-14T12:23:00.990Z,11.53
2022-12-14T12:25:36.986Z,11.40
2022-12-14T12:28:34.334Z,10.17
2022-12-14T12:31:09.069Z,8.97
2022-12-14T12:33:43.757Z,9.63
2022-12-14T12:36:11.386Z,11.30
2022-12-14T12:38:42.112Z,10.70
2022-12-14T12:41:26.292Z,11.00
2022-12-14T12:44:17.008Z,11.47
2022-12-14T12:47:24.031Z,11.63
2022-12-14T12:49:47.023Z,10.97
2022-12-14T12:52:29.854Z,11.53
2022-12-14T12:54:59.137Z,10.73
2022-12-14T12:57:33.465Z,10.40
2022-12-14T13:00:01.018Z,10.60
2022-12-14T13:02:34.031Z,11.53
2022-12-14T13:05:45.678Z,11.83
2022-12-14T13:08:08.290Z,12.13
2022-12-14T13:10:41.992Z,11.97
2022-12-14T13:13:26.965Z,12.70
2022-12-14T13:15:56.249Z,10.63
2022-12-14T13:18:57.930Z,11.27
2022-12-14T13:21:44.037Z,11.50
2022-12-14T13:24:18.313Z,10.27
2022-12-14T13:26:58.955Z,12.07
2022-12-14T13:29:35.980Z,11.73
2022-12-14T13:32:29.879Z,12.27
2022-12-14T13:35:07.354Z,11.87
2022-12-14T13:37:57.491Z,11.73
2022-12-14T13:40:24.972Z,10.87
2022-12-14T13:42:52.464Z,11.73
2022-12-14T13:45:23.572Z,12.40
2022-12-14T13:47:54.622Z,12.40
2022-12-14T13:50:36.200Z,11.90
2022-12-14T13:53:19.516Z,11.83
2022-12-14T13:55:52.254Z,12.10
2022-12-14T13:58:32.024Z,11.77
2022-12-14T14:01:01.445Z,12.50
2022-12-14T14:03:35.211Z,11.73
2022-12-14T14:06:09.000Z,12.43
2022-12-14T14:08:41.809Z,11.83
2022-12-14T14:14:19.435Z,11.77
2022-12-14T14:16:50.029Z,11.80
2022-12-14T14:19:24.817Z,10.90
2022-12-14T14:22:21.736Z,12.00
2022-12-14T14:25:09.294Z,12.53
2022-12-14T14:27:38.734Z,13.00
2022-12-14T14:30:24.483Z,12.10
2022-12-14T14:32:54.218Z,12.23
2022-12-14T14:35:27.670Z,12.73
2022-12-14T14:37:59.736Z,12.50
2022-12-14T14:40:51.479Z,12.03
2022-12-14T14:43:39.455Z,11.50
2022-12-14T14:46:08.902Z,12.50
2022-12-14T14:48:43.875Z,13.10
2022-12-14T14:51:17.164Z,13.40
2022-12-14T14:53:45.047Z,13.67
2022-12-14T14:56:32.877Z,12.77
2022-12-14T14:59:30.014Z,12.07
2022-12-14T15:02:00.618Z,11.93
2022-12-14T15:04:46.912Z,12.53
2022-12-14T15:07:23.007Z,12.17
2022-12-14T15:09:59.639Z,12.80
2022-12-14T15:12:33.258Z,12.07
2022-12-14T15:15:27.251Z,15.47
2022-12-14T15:17:54.877Z,13.20
2022-12-14T15:20:27.771Z,12.27
2022-12-14T15:22:56.415Z,13.23
2022-12-14T15:25:26.036Z,12.83
2022-12-14T15:27:54.287Z,13.37
2022-12-14T15:30:25.533Z,12.03
2022-12-14T15:33:03.645Z,12.87
2022-12-14T15:35:32.928Z,13.03
2022-12-14T15:38:06.227Z,12.57
2022-12-14T15:40:34.719Z,12.90
2022-12-14T15:43:17.016Z,13.03
2022-12-14T15:45:45.329Z,13.80
2022-12-14T15:48:25.869Z,13.30
2022-12-14T15:50:55.431Z,12.33
2022-12-14T15:53:38.593Z,11.90
2022-12-14T15:56:15.352Z,13.17
2022-12-14T15:58:45.096Z,12.70
2022-12-14T16:01:18.438Z,13.33
2022-12-14T16:03:48.234Z,14.40
2022-12-14T16:06:18.382Z,14.10
2022-12-14T16:08:55.143Z,13.00
2022-12-14T16:11:43.601Z,12.60
2022-12-14T16:14:25.078Z,12.30
2022-12-14T16:16:52.815Z,13.53
2022-12-14T16:19:27.640Z,13.33
2022-12-14T16:22:15.201Z,13.47
2022-12-14T16:24:54.300Z,13.53
2022-12-14T16:27:21.867Z,12.83
2022-12-14T16:30:05.095Z,13.73
2022-12-14T16:32:33.678Z,12.77
2022-12-14T16:35:01.502Z,13.50
2022-12-14T16:37:33.437Z,13.73
2022-12-14T16:40:01.627Z,13.23
2022-12-14T16:42:32.442Z,12.70
2022-12-14T16:45:01.129Z,12.77
2022-12-14T16:47:35.636Z,13.80
2022-12-14T16:50:40.043Z,13.13
2022-12-14T16:53:14.722Z,12.80
2022-12-14T16:56:02.476Z,12.70
2022-12-14T16:58:30.424Z,11.63
2022-12-14T17:01:02.085Z,13.37
2022-12-14T17:03:30.962Z,13.20
2022-12-14T17:06:00.984Z,13.20
2022-12-14T17:08:28.657Z,14.07
2022-12-14T17:10:56.376Z,13.87
2022-12-14T17:13:24.011Z,12.93
2022-12-14T17:16:06.085Z,13.33
2022-12-14T17:18:39.255Z,13.47
2022-12-14T17:21:07.137Z,13.40
2022-12-14T17:23:44.092Z,14.23
2022-12-14T17:26:25.478Z,17.57
2022-12-14T17:28:52.960Z,14.93
2022-12-14T17:31:22.697Z,14.67
2022-12-14T17:33:50.946Z,15.07
2022-12-14T17:36:18.446Z,15.47
2022-12-14T17:38:45.972Z,14.97
2022-12-14T17:41:23.693Z,15.00
2022-12-14T17:43:56.635Z,14.57
2022-12-14T17:46:25.253Z,16.20
2022-12-14T17:48:53.471Z,15.70
2022-12-14T17:51:25.663Z,15.90
2022-12-14T17:53:53.917Z,15.63
2022-12-14T17:56:21.806Z,15.43
2022-12-14T17:58:50.181Z,14.47
2022-12-14T18:01:23.058Z,16.63
2022-12-14T18:03:50.939Z,16.07
2022-12-14T18:06:19.082Z,16.97
2022-12-14T18:08:47.042Z,15.37
2022-12-14T18:11:16.346Z,16.53
2022-12-14T18:13:44.148Z,16.47
2022-12-14T18:16:16.418Z,15.30
2022-12-14T18:18:46.001Z,16.63
2022-12-14T18:21:24.325Z,16.47
2022-12-14T18:23:52.431Z,15.63
2022-12-14T18:26:21.042Z,16.07
2022-12-14T18:28:49.408Z,15.43
2022-12-14T18:31:22.659Z,15.07
2022-12-14T18:33:50.746Z,15.57
2022-12-14T18:36:20.148Z,15.90
2022-12-14T18:38:49.511Z,15.53
2022-12-14T18:41:18.888Z,15.57
2022-12-14T18:43:46.631Z,14.90
2022-12-14T18:46:14.129Z,14.03
2022-12-14T18:48:42.361Z,15.37
2022-12-14T18:51:23.160Z,14.93
2022-12-14T18:53:51.105Z,14.17
2022-12-14T18:56:19.062Z,14.50
2022-12-14T18:58:47.685Z,15.00
2022-12-14T19:01:16.296Z,14.50
2022-12-14T19:03:44.773Z,15.00
2022-12-14T19:09:04.732Z,13.53
2022-12-14T19:11:33.786Z,13.80
2022-12-14T19:14:01.794Z,13.53
2022-12-14T19:16:29.558Z,14.40
2022-12-14T19:18:57.075Z,14.53
2022-12-14T19:21:26.422Z,14.00
2022-12-14T19:23:53.835Z,14.30
2022-12-14T19:26:21.450Z,14.67
2022-12-14T19:28:49.067Z,13.37
2022-12-14T19:31:16.584Z,14.43
2022-12-14T19:33:44.038Z,14.77
2022-12-14T19:36:11.552Z,13.90
2022-12-14T19:38:39.317Z,14.20
2022-12-14T19:41:12.024Z,14.47
2022-12-14T19:43:39.616Z,14.20
2022-12-14T19:46:11.334Z,14.57
2022-12-14T19:48:38.834Z,14.23
2022-12-14T19:51:07.159Z,14.00
2022-12-14T19:53:35.334Z,13.93
2022-12-14T19:56:03.182Z,13.77
2022-12-14T19:58:30.775Z,14.00
2022-12-14T20:00:58.422Z,14.17
2022-12-14T20:03:25.931Z,14.33
2022-12-14T20:06:00.245Z,13.93
2022-12-14T20:08:28.875Z,13.87
2022-12-14T20:10:56.703Z,14.83
2022-12-14T20:13:25.135Z,14.07
2022-12-14T20:16:00.521Z,13.33
2022-12-14T20:18:28.627Z,13.53
2022-12-14T20:21:07.015Z,12.83
2022-12-14T20:23:37.989Z,14.03
2022-12-14T20:26:06.551Z,14.33
2022-12-14T20:28:34.254Z,13.27
2022-12-14T20:31:01.956Z,14.10
2022-12-14T20:33:30.731Z,13.13
2022-12-14T20:35:58.468Z,14.73
2022-12-14T20:38:26.056Z,13.67
2022-12-14T20:40:53.776Z,14.13
2022-12-14T20:43:21.294Z,14.00
2022-12-14T20:45:48.761Z,13.50
2022-12-14T20:48:16.207Z,13.53
2022-12-14T20:50:44.307Z,14.57
2022-12-14T20:53:18.692Z,14.60
2022-12-14T20:55:46.075Z,13.53
2022-12-14T20:58:13.481Z,14.73
2022-12-14T21:00:40.953Z,14.00
2022-12-14T21:03:08.607Z,13.87
2022-12-14T21:05:40.811Z,13.23
2022-12-14T21:08:08.302Z,14.27
2022-12-14T21:10:35.838Z,13.97
2022-12-14T21:13:07.656Z,13.87
2022-12-14T21:15:35.869Z,14.37
2022-12-14T21:18:03.645Z,13.30
2022-12-14T21:20:31.107Z,14.07
2022-12-14T21:22:58.622Z,14.23
2022-12-14T21:25:26.058Z,14.20
2022-12-14T21:27:53.443Z,13.53
2022-12-14T21:30:21.140Z,13.63
2022-12-14T21:32:48.578Z,14.80
2022-12-14T21:35:18.442Z,14.13
2022-12-14T21:37:45.923Z,14.47
2022-12-14T21:40:33.463Z,13.90
2022-12-14T21:43:00.891Z,14.27
2022-12-14T21:45:28.333Z,13.97
2022-12-14T21:47:55.991Z,15.37
2022-12-14T21:50:23.403Z,16.20
2022-12-14T21:52:50.789Z,15.07
2022-12-14T21:55:18.218Z,13.63
2022-12-14T21:58:04.194Z,14.17
2022-12-14T22:00:31.640Z,13.80
2022-12-14T22:02:59.082Z,13.47
2022-12-14T22:05:26.518Z,14.10
2022-12-14T22:07:53.983Z,13.87
2022-12-14T22:10:24.861Z,14.50
2022-12-14T22:12:52.569Z,14.53
2022-12-14T22:15:19.965Z,14.53
2022-12-14T22:17:47.399Z,14.80
2022-12-14T22:20:14.881Z,13.90
2022-12-14T22:22:42.338Z,14.83
2022-12-14T22:25:09.969Z,13.70
2022-12-14T22:27:37.317Z,14.33
2022-12-14T22:30:05.464Z,14.87
2022-12-14T22:32:32.990Z,13.80
2022-12-14T22:35:00.603Z,14.27
2022-12-14T22:37:28.017Z,14.57
2022-12-14T22:39:55.387Z,15.70
2022-12-14T22:42:22.763Z,14.67
2022-12-14T22:44:50.168Z,15.60
2022-12-14T22:47:17.801Z,14.17
2022-12-14T22:49:45.213Z,15.17
2022-12-14T22:52:13.051Z,14.73
2022-12-14T22:54:41.621Z,16.60
2022-12-14T22:57:12.207Z,18.90
2022-12-14T22:59:42.085Z,17.00
2022-12-14T23:02:09.823Z,15.87
2022-12-14T23:04:38.035Z,15.23
2022-12-14T23:07:05.626Z,15.37
2022-12-14T23:09:52.325Z,15.70
2022-12-14T23:12:39.546Z,14.97
2022-12-14T23:15:25.847Z,14.07
2022-12-14T23:18:15.168Z,13.60
2022-12-14T23:21:01.317Z,14.63
2022-12-14T23:23:47.372Z,14.13
2022-12-14T23:26:33.638Z,15.43
2022-12-14T23:29:20.036Z,14.63
2022-12-14T23:32:06.220Z,13.63
2022-12-14T23:34:52.512Z,13.50
2022-12-14T23:37:38.697Z,13.97
2022-12-14T23:40:25.316Z,13.70
2022-12-14T23:43:11.518Z,14.67
2022-12-14T23:45:57.557Z,12.43
2022-12-14T23:48:43.663Z,13.10
2022-12-14T23:51:29.988Z,13.90
2022-12-14T23:54:15.756Z,13.63
2022-12-14T23:57:01.726Z,13.07
2022-12-14T23:59:49.532Z,13.33
